Time;durP1;ratioP1;P1;durP2;ratioP2;P2;SDS_P1;SDS_P2;PMS_P1;PMS_P2;Temp;Humidity;BMP_temperature;BMP_pressure;BME280_temperature;BME280_humidity;BME280_pressure;Samples;Min_cycle;Max_cycle;Signal;HPM_P1;HPM_P2
2022/02/20 00:01:47;;;;;;;50.33;22.30;;;-1.70;84.00;;;;;;4957468;29;20063;-80
2022/02/20 00:04:13;;;;;;;54.25;25.50;;;-1.80;85.60;;;;;;4940499;29;20062;-82
2022/02/20 00:06:39;;;;;;;49.00;22.23;;;-1.90;87.00;;;;;;4940237;29;20050;-81
2022/02/20 00:09:05;;;;;;;48.28;23.38;;;-2.10;87.80;;;;;;4957066;29;20481;-74
2022/02/20 00:11:31;;;;;;;46.45;22.05;;;-2.00;86.80;;;;;;4940173;29;20106;-74
2022/02/20 00:13:57;;;;;;;52.25;20.20;;;-2.00;86.60;;;;;;4957216;29;20477;-81
2022/02/20 00:16:23;;;;;;;44.55;19.80;;;-2.00;86.10;;;;;;4939726;29;20082;-81
2022/02/20 00:18:49;;;;;;;38.65;19.63;;;-2.00;86.00;;;;;;4939781;29;20031;-75
2022/02/20 00:21:15;;;;;;;51.97;23.33;;;-2.00;86.20;;;;;;4957202;28;20103;-81
2022/02/20 00:23:41;;;;;;;53.53;25.58;;;-2.10;86.60;;;;;;4956921;29;20138;-75
2022/02/20 00:26:06;;;;;;;61.42;26.58;;;-2.10;87.70;;;;;;4971746;28;20110;-82
2022/02/20 00:28:32;;;;;;;66.00;26.13;;;-2.10;86.70;;;;;;4956864;28;20119;-74
2022/02/20 00:30:58;;;;;;;67.60;29.35;;;-2.10;86.90;;;;;;4971836;28;20445;-81
2022/02/20 00:33:23;;;;;;;99.85;39.72;;;-2.10;87.10;;;;;;4957021;29;20031;-74
2022/02/20 00:35:49;;;;;;;57.67;26.90;;;-2.10;87.90;;;;;;4956748;28;20031;-82
2022/02/20 00:38:15;;;;;;;72.85;29.15;;;-2.20;90.10;;;;;;4971519;28;20022;-81
2022/02/20 00:40:41;;;;;;;65.03;25.63;;;-2.20;90.20;;;;;;4971500;28;20062;-80
2022/02/20 00:43:06;;;;;;;62.42;26.92;;;-2.20;89.90;;;;;;4971493;28;20023;-81
2022/02/20 00:45:33;;;;;;;141.63;52.45;;;-2.20;90.20;;;;;;4956646;29;20078;-81
2022/02/20 00:47:59;;;;;;;160.57;58.92;;;-2.20;90.50;;;;;;4955657;28;20047;-81
2022/02/20 00:50:25;;;;;;;215.10;78.97;;;-2.20;90.90;;;;;;4956508;28;20019;-81
2022/02/20 00:52:51;;;;;;;151.13;57.60;;;-2.30;90.80;;;;;;4939102;29;20029;-74
2022/02/20 00:55:17;;;;;;;143.75;57.90;;;-2.20;91.10;;;;;;4956257;28;20019;-75
2022/02/20 00:57:43;;;;;;;95.82;37.35;;;-2.30;91.90;;;;;;4956234;28;20046;-75
2022/02/20 01:00:10;;;;;;;59.42;25.88;;;-2.30;92.60;;;;;;4939024;29;20069;-74
2022/02/20 01:02:36;;;;;;;65.22;26.55;;;-2.30;92.80;;;;;;4956382;28;20027;-74
2022/02/20 01:05:03;;;;;;;63.75;25.70;;;-2.30;93.10;;;;;;4954979;28;20028;-81
2022/02/20 01:07:28;;;;;;;46.42;22.25;;;-2.30;92.60;;;;;;4956047;28;20046;-80
2022/02/20 01:09:54;;;;;;;63.85;28.50;;;-2.30;92.20;;;;;;4956174;29;20023;-81
2022/02/20 01:12:20;;;;;;;65.55;25.98;;;-2.30;92.30;;;;;;4938911;29;20110;-74
2022/02/20 01:14:46;;;;;;;75.10;29.95;;;-2.30;92.70;;;;;;4956059;29;20489;-74
2022/02/20 01:17:12;;;;;;;60.20;26.38;;;-2.30;93.00;;;;;;4956145;28;20228;-74
2022/02/20 01:19:39;;;;;;;52.88;23.92;;;-2.30;93.60;;;;;;4954516;28;20019;-73
2022/02/20 01:22:04;;;;;;;60.30;24.58;;;-2.30;93.50;;;;;;4938810;29;20105;-81
2022/02/20 01:24:30;;;;;;;44.83;21.83;;;-2.30;93.50;;;;;;4938814;29;20066;-81
2022/02/20 01:26:56;;;;;;;68.40;25.45;;;-2.30;93.40;;;;;;4955887;28;20031;-77
2022/02/20 01:29:22;;;;;;;68.38;29.30;;;-2.40;93.10;;;;;;4955926;29;20114;-79
2022/02/20 01:31:53;;;;;;;66.38;28.23;;;-2.40;93.80;;;;;;4955831;28;20053;-81
2022/02/20 01:34:22;;;;;;;75.30;31.38;;;-2.50;95.30;;;;;;4938557;29;20039;-74
2022/02/20 01:36:48;;;;;;;59.15;23.52;;;-2.50;96.50;;;;;;4955737;28;20023;-74
2022/02/20 01:39:14;;;;;;;59.22;24.85;;;-2.50;96.40;;;;;;4938333;29;20031;-75
2022/02/20 01:41:39;;;;;;;62.08;28.60;;;-2.50;96.20;;;;;;4955670;28;20500;-74
2022/02/20 01:44:06;;;;;;;57.40;24.65;;;-2.50;96.30;;;;;;4955724;28;20019;-81
2022/02/20 01:46:32;;;;;;;46.72;23.13;;;-2.60;95.80;;;;;;4938143;29;20030;-74
2022/02/20 01:48:58;;;;;;;52.60;22.00;;;-2.60;94.90;;;;;;4955551;28;20032;-75
2022/02/20 01:51:24;;;;;;;63.08;25.77;;;-2.60;94.90;;;;;;4955529;28;20485;-75
2022/02/20 01:53:49;;;;;;;43.28;20.13;;;-2.60;95.30;;;;;;4938239;29;20024;-81
2022/02/20 01:56:16;;;;;;;53.92;23.80;;;-2.70;95.50;;;;;;4955467;28;20034;-74
2022/02/20 01:58:42;;;;;;;61.00;26.30;;;-2.70;95.60;;;;;;4955460;29;20027;-75
2022/02/20 02:01:08;;;;;;;62.70;27.77;;;-2.70;95.20;;;;;;4937683;29;20042;-77
2022/02/20 02:03:36;;;;;;;71.50;31.02;;;-2.70;96.00;;;;;;4955270;29;20034;-77
2022/02/20 02:06:02;;;;;;;66.07;26.42;;;-2.70;96.70;;;;;;4955331;28;20477;-83
2022/02/20 02:08:27;;;;;;;61.65;26.15;;;-2.70;96.70;;;;;;4937980;29;20058;-77
2022/02/20 02:10:53;;;;;;;73.35;27.40;;;-2.60;96.70;;;;;;4955215;28;20473;-77
2022/02/20 02:13:18;;;;;;;66.03;29.13;;;-2.70;96.50;;;;;;4937985;29;20110;-83
2022/02/20 02:15:54;;;;;;;68.30;32.35;;;-2.70;96.90;;;;;;4937914;28;20047;-84
2022/02/20 02:18:20;;;;;;;67.18;28.92;;;-2.70;98.30;;;;;;4955164;29;20026;-76
2022/02/20 02:20:47;;;;;;;60.95;23.60;;;-2.80;99.00;;;;;;4955185;28;20054;-77
2022/02/20 02:23:17;;;;;;;52.45;24.52;;;-2.80;99.30;;;;;;4955290;29;20504;-83
2022/02/20 02:25:43;;;;;;;60.05;26.00;;;-2.80;99.10;;;;;;4955061;29;20118;-84
2022/02/20 02:28:08;;;;;;;61.83;26.02;;;-2.80;99.30;;;;;;4937871;29;20462;-83
2022/02/20 02:30:34;;;;;;;50.72;22.65;;;-2.80;98.10;;;;;;4955056;28;20106;-84
2022/02/20 02:32:59;;;;;;;49.90;23.40;;;-2.80;98.10;;;;;;4955233;28;20028;-84
2022/02/20 02:35:25;;;;;;;54.60;23.55;;;-2.80;98.00;;;;;;4955068;28;20031;-77
2022/02/20 02:37:52;;;;;;;59.22;27.77;;;-2.80;98.00;;;;;;4937816;29;20066;-84
2022/02/20 02:40:18;;;;;;;53.13;25.92;;;-2.80;97.90;;;;;;4954982;28;20016;-83
2022/02/20 02:42:44;;;;;;;63.70;28.30;;;-2.90;97.90;;;;;;4954777;28;20078;-77
2022/02/20 02:45:09;;;;;;;65.53;27.40;;;-2.90;98.80;;;;;;4954964;28;20032;-78
2022/02/20 02:47:35;;;;;;;93.20;41.03;;;-2.90;99.90;;;;;;4954831;28;20039;-84
2022/02/20 02:50:00;;;;;;;78.68;33.03;;;-3.00;99.90;;;;;;4955031;29;20374;-77
2022/02/20 02:52:26;;;;;;;57.15;27.25;;;-3.00;99.90;;;;;;4937685;29;20394;-77
2022/02/20 02:54:52;;;;;;;48.58;22.00;;;-3.10;99.90;;;;;;4954849;28;20027;-83
2022/02/20 02:57:17;;;;;;;43.63;20.73;;;-3.10;99.90;;;;;;4954824;28;20034;-83
2022/02/20 02:59:43;;;;;;;44.97;18.73;;;-3.10;99.90;;;;;;4954919;29;20055;-77
2022/02/20 03:02:08;;;;;;;50.72;22.70;;;-3.10;99.90;;;;;;4954802;28;20150;-76
2022/02/20 03:04:34;;;;;;;53.55;21.55;;;-3.10;99.90;;;;;;4937590;29;20016;-83
2022/02/20 03:07:00;;;;;;;53.70;21.27;;;-3.00;99.90;;;;;;4937468;29;20121;-83
2022/02/20 03:09:26;;;;;;;45.95;20.70;;;-3.00;99.90;;;;;;4937608;29;20146;-77
2022/02/20 03:11:52;;;;;;;47.10;20.80;;;-3.00;99.90;;;;;;4939471;29;20031;-77
2022/02/20 03:14:18;;;;;;;42.28;18.02;;;-3.00;99.90;;;;;;4958445;29;20030;-77
2022/02/20 03:16:44;;;;;;;44.75;19.77;;;-2.90;99.90;;;;;;4941155;29;20020;-84
2022/02/20 03:19:10;;;;;;;50.53;22.42;;;-2.90;99.90;;;;;;4941006;29;20045;-83
2022/02/20 03:21:36;;;;;;;51.70;20.23;;;-2.90;99.90;;;;;;4958143;28;20051;-77
2022/02/20 03:24:01;;;;;;;53.03;23.25;;;-2.80;99.90;;;;;;4958311;28;20489;-78
2022/02/20 03:26:27;;;;;;;74.72;31.10;;;-2.80;99.30;;;;;;4940814;29;20027;-77
2022/02/20 03:28:52;;;;;;;66.37;28.40;;;-2.80;99.20;;;;;;4940938;29;20458;-84
2022/02/20 03:31:18;;;;;;;66.43;27.17;;;-2.70;98.90;;;;;;4958058;28;20078;-77
2022/02/20 03:33:43;;;;;;;61.40;25.85;;;-2.70;98.90;;;;;;4940847;29;20118;-83
2022/02/20 03:36:09;;;;;;;65.53;27.73;;;-2.70;99.40;;;;;;4958140;28;20070;-84
2022/02/20 03:38:35;;;;;;;62.13;25.58;;;-2.70;99.50;;;;;;4957857;28;20098;-84
2022/02/20 03:41:02;;;;;;;56.33;26.73;;;-2.70;99.30;;;;;;4940535;28;20158;-83
2022/02/20 03:43:27;;;;;;;63.67;26.77;;;-2.60;99.20;;;;;;4940671;29;20030;-83
2022/02/20 03:45:53;;;;;;;60.97;28.10;;;-2.70;99.10;;;;;;4957746;28;20027;-84
2022/02/20 03:48:19;;;;;;;70.47;26.98;;;-2.60;99.70;;;;;;4957658;28;20539;-83
2022/02/20 03:50:44;;;;;;;52.10;22.05;;;-2.70;99.40;;;;;;4940401;28;20540;-84
2022/02/20 03:53:10;;;;;;;51.28;21.75;;;-2.60;99.30;;;;;;4957700;29;20030;-78
2022/02/20 03:55:35;;;;;;;50.88;22.08;;;-2.70;99.40;;;;;;4940317;29;20050;-77
2022/02/20 03:58:01;;;;;;;35.58;18.38;;;-2.60;99.40;;;;;;4957587;28;20027;-84
2022/02/20 04:00:27;;;;;;;30.77;16.38;;;-2.60;98.80;;;;;;4940233;29;20023;-78
2022/02/20 04:02:53;;;;;;;38.80;17.27;;;-2.60;98.20;;;;;;4940344;29;20037;-76
2022/02/20 04:05:20;;;;;;;42.40;19.23;;;-2.50;97.70;;;;;;4939714;29;20015;-83
2022/02/20 04:07:46;;;;;;;44.20;20.65;;;-2.40;97.40;;;;;;4957270;28;20118;-76
2022/02/20 04:10:13;;;;;;;39.63;17.73;;;-2.40;97.70;;;;;;4957321;28;20059;-76
2022/02/20 04:12:39;;;;;;;36.33;17.25;;;-2.30;96.60;;;;;;4957264;28;20062;-83
2022/02/20 04:15:06;;;;;;;47.60;20.48;;;-2.30;97.00;;;;;;4939974;29;20020;-76
2022/02/20 04:17:41;;;;;;;42.42;23.08;;;-2.30;99.10;;;;;;4957283;28;20030;-76
2022/02/20 04:20:09;;;;;;;40.05;19.55;;;-2.30;99.90;;;;;;4936599;29;20118;-76
2022/02/20 04:22:35;;;;;;;44.90;22.30;;;-2.30;99.90;;;;;;4936227;29;20024;-76
2022/02/20 04:25:01;;;;;;;46.95;24.30;;;-2.30;99.90;;;;;;4936694;29;20034;-83
2022/02/20 04:27:26;;;;;;;48.92;23.25;;;-2.30;99.90;;;;;;4937896;29;20040;-83
2022/02/20 04:29:52;;;;;;;39.67;21.02;;;-2.30;99.90;;;;;;4936570;29;20023;-76
2022/02/20 04:32:18;;;;;;;35.72;18.17;;;-2.30;99.90;;;;;;4937892;29;20035;-76
2022/02/20 04:34:43;;;;;;;37.08;17.42;;;-2.30;99.90;;;;;;4937835;29;20028;-76
2022/02/20 04:37:09;;;;;;;38.75;17.30;;;-2.20;99.90;;;;;;4936476;29;20028;-83
2022/02/20 04:39:34;;;;;;;40.58;16.55;;;-2.20;99.90;;;;;;4936364;29;20023;-83
2022/02/20 04:42:00;;;;;;;40.63;16.00;;;-2.20;99.90;;;;;;4936372;29;20035;-76
2022/02/20 04:44:26;;;;;;;42.85;16.77;;;-2.20;99.90;;;;;;4936332;29;20398;-77
2022/02/20 04:46:52;;;;;;;39.13;15.65;;;-2.20;99.90;;;;;;4936375;29;20106;-82
2022/02/20 04:49:18;;;;;;;32.25;14.98;;;-2.10;99.90;;;;;;4936242;29;20465;-82
2022/02/20 04:51:43;;;;;;;41.30;18.00;;;-2.10;99.10;;;;;;4936210;29;20059;-75
2022/02/20 04:54:09;;;;;;;29.95;14.07;;;-2.00;98.40;;;;;;4937479;29;20413;-84
2022/02/20 04:56:35;;;;;;;29.13;13.40;;;-2.00;97.40;;;;;;4937235;29;20054;-76
2022/02/20 04:59:00;;;;;;;34.33;15.65;;;-1.90;96.40;;;;;;4922770;29;20032;-76
2022/02/20 05:01:26;;;;;;;33.55;18.63;;;-1.90;94.90;;;;;;4916944;29;20048;-74
2022/02/20 05:03:52;;;;;;;36.60;16.42;;;-1.90;93.40;;;;;;4918257;29;20035;-82
2022/02/20 05:06:19;;;;;;;24.80;12.88;;;-1.80;93.00;;;;;;4916917;29;20439;-81
2022/02/20 05:08:45;;;;;;;22.02;11.63;;;-1.80;92.80;;;;;;4916908;29;20036;-74
2022/02/20 05:11:11;;;;;;;30.60;10.98;;;-1.70;91.40;;;;;;4917896;29;20032;-81
2022/02/20 05:13:37;;;;;;;29.02;12.13;;;-1.70;89.60;;;;;;4918128;29;20035;-81
2022/02/20 05:16:02;;;;;;;16.55;8.85;;;-1.60;89.10;;;;;;4917976;29;21786;-81
2022/02/20 05:18:28;;;;;;;17.77;8.10;;;-1.60;88.60;;;;;;4916787;29;20390;-74
2022/02/20 05:20:57;;;;;;;17.35;7.97;;;-1.50;87.90;;;;;;4929635;29;20051;-73
2022/02/20 05:23:23;;;;;;;14.95;7.97;;;-1.40;86.30;;;;;;4936768;29;20397;-81
2022/02/20 05:25:49;;;;;;;19.15;8.68;;;-1.30;85.40;;;;;;4919641;29;20552;-81
2022/02/20 05:28:15;;;;;;;12.98;6.85;;;-1.30;84.80;;;;;;4919581;29;20043;-81
2022/02/20 05:30:40;;;;;;;14.40;6.15;;;-1.20;83.70;;;;;;4919685;29;20501;-74
2022/02/20 05:33:06;;;;;;;10.73;5.78;;;-1.10;82.70;;;;;;4936634;29;20504;-81
2022/02/20 05:35:31;;;;;;;17.23;7.63;;;-1.00;80.60;;;;;;4935582;29;20091;-80
2022/02/20 05:37:57;;;;;;;14.80;7.15;;;-0.90;79.50;;;;;;4919756;29;20606;-74
2022/02/20 05:40:23;;;;;;;18.38;6.82;;;-0.90;78.70;;;;;;4919466;29;20024;-75
2022/02/20 05:42:50;;;;;;;19.90;8.57;;;-0.80;77.30;;;;;;4936440;29;20079;-74
2022/02/20 05:45:15;;;;;;;14.15;6.97;;;-0.60;76.50;;;;;;4919344;29;20032;-80
2022/02/20 05:47:41;;;;;;;17.17;7.97;;;-0.60;76.30;;;;;;4919338;29;20453;-81
2022/02/20 05:50:09;;;;;;;15.30;7.25;;;-0.40;74.50;;;;;;4936340;29;20451;-80
2022/02/20 05:52:35;;;;;;;12.82;6.45;;;-0.20;73.00;;;;;;4919417;29;20454;-74
2022/02/20 05:55:00;;;;;;;20.65;7.60;;;-0.10;72.40;;;;;;4936391;29;20023;-74
2022/02/20 05:57:26;;;;;;;13.80;6.97;;;0.10;71.90;;;;;;4936316;29;20055;-74
2022/02/20 05:59:51;;;;;;;16.33;8.48;;;0.30;70.00;;;;;;4919339;29;20034;-74
2022/02/20 06:02:17;;;;;;;12.40;7.22;;;0.50;68.70;;;;;;4936244;29;20032;-82
2022/02/20 06:04:42;;;;;;;16.33;6.85;;;0.60;67.20;;;;;;4930029;29;20045;-75
2022/02/20 06:07:09;;;;;;;25.38;9.18;;;0.80;67.00;;;;;;4954984;28;20034;-74
2022/02/20 06:09:35;;;;;;;21.50;6.90;;;0.90;66.10;;;;;;4954967;28;20023;-75
2022/02/20 06:12:01;;;;;;;25.02;8.85;;;1.00;65.10;;;;;;4955090;28;20034;-74
2022/02/20 06:14:26;;;;;;;37.47;12.38;;;1.10;64.50;;;;;;4953336;29;20024;-76
2022/02/20 06:16:52;;;;;;;37.97;13.60;;;1.20;64.20;;;;;;4954949;28;20035;-74
2022/02/20 06:19:17;;;;;;;10.90;4.97;;;1.30;64.50;;;;;;4955014;28;20027;-75
2022/02/20 06:21:43;;;;;;;9.38;4.30;;;1.50;63.60;;;;;;4937621;29;20051;-75
2022/02/20 06:24:09;;;;;;;15.82;6.72;;;1.70;63.70;;;;;;4954945;28;20031;-74
2022/02/20 06:26:34;;;;;;;12.45;5.43;;;1.90;63.50;;;;;;4954513;28;20039;-74
2022/02/20 06:29:00;;;;;;;20.63;7.35;;;2.00;62.80;;;;;;4937153;29;20130;-75
2022/02/20 06:31:26;;;;;;;35.92;15.27;;;2.10;62.70;;;;;;4937603;29;20039;-75
2022/02/20 06:33:52;;;;;;;48.17;13.15;;;2.20;62.10;;;;;;4937686;29;20030;-76
2022/02/20 06:36:19;;;;;;;39.70;14.05;;;2.20;61.90;;;;;;4954822;28;20027;-75
2022/02/20 06:38:45;;;;;;;50.45;16.58;;;2.30;61.20;;;;;;4937643;29;20029;-75
2022/02/20 06:41:11;;;;;;;26.13;7.78;;;2.40;61.00;;;;;;4937317;29;20094;-74
2022/02/20 06:43:38;;;;;;;33.00;10.82;;;2.40;62.50;;;;;;4954364;29;20497;-75
2022/02/20 06:46:03;;;;;;;77.22;24.25;;;2.30;65.60;;;;;;4955571;28;20473;-82
2022/02/20 06:48:29;;;;;;;61.05;15.45;;;2.30;67.00;;;;;;4941340;29;20043;-81
2022/02/20 06:50:55;;;;;;;102.97;31.48;;;2.30;68.70;;;;;;4958518;28;20035;-82
2022/02/20 06:53:20;;;;;;;134.48;35.47;;;2.30;70.00;;;;;;4958511;28;20047;-75
2022/02/20 06:55:46;;;;;;;108.78;30.50;;;2.30;71.00;;;;;;4958540;28;20023;-74
2022/02/20 06:58:12;;;;;;;133.80;39.30;;;2.40;71.10;;;;;;4957711;29;20078;-75
2022/02/20 07:00:37;;;;;;;98.53;25.08;;;2.50;71.40;;;;;;4958472;28;20038;-81
2022/02/20 07:03:03;;;;;;;102.82;30.83;;;2.60;70.60;;;;;;4941155;29;20033;-82
2022/02/20 07:05:29;;;;;;;80.15;21.75;;;2.70;70.60;;;;;;4958394;29;20098;-81
2022/02/20 07:07:54;;;;;;;160.50;41.17;;;2.70;72.40;;;;;;4958107;28;20047;-82
2022/02/20 07:10:20;;;;;;;95.88;21.20;;;2.60;73.50;;;;;;4940873;29;20039;-75
2022/02/20 07:12:46;;;;;;;126.65;32.20;;;2.50;77.70;;;;;;4940351;29;20028;-75
2022/02/20 07:15:12;;;;;;;156.70;39.88;;;2.50;80.40;;;;;;4958258;28;20027;-76
2022/02/20 07:17:37;;;;;;;80.40;21.23;;;2.30;89.50;;;;;;4940963;29;20027;-82
2022/02/20 07:20:04;;;;;;;99.85;25.75;;;2.20;97.20;;;;;;4940968;29;20139;-82
2022/02/20 07:22:34;;;;;;;182.10;54.50;;;2.10;99.90;;;;;;4940824;29;20019;-75
2022/02/20 07:25:01;;;;;;;173.20;50.13;;;2.00;99.90;;;;;;4957949;29;20034;-83
2022/02/20 07:27:27;;;;;;;133.70;38.70;;;1.80;99.90;;;;;;4957631;28;20501;-75
2022/02/20 07:29:53;;;;;;;123.28;34.97;;;1.70;99.90;;;;;;4957886;29;20132;-75
2022/02/20 07:32:18;;;;;;;209.18;55.60;;;1.60;99.90;;;;;;4940704;29;20050;-75
2022/02/20 07:34:44;;;;;;;248.15;66.40;;;1.50;99.90;;;;;;4940165;28;20039;-76
2022/02/20 07:37:09;;;;;;;243.23;63.10;;;1.40;99.90;;;;;;4938733;29;20036;-82
2022/02/20 07:39:35;;;;;;;241.18;68.93;;;1.40;99.90;;;;;;4921698;29;20023;-74
2022/02/20 07:42:01;;;;;;;223.65;64.88;;;1.40;99.90;;;;;;4921515;29;20106;-82
2022/02/20 07:44:26;;;;;;;302.58;86.28;;;1.40;99.90;;;;;;4920920;29;20075;-75
2022/02/20 07:46:52;;;;;;;201.32;56.53;;;1.40;99.90;;;;;;4921302;29;20040;-75
2022/02/20 07:49:18;;;;;;;233.13;65.45;;;1.40;99.90;;;;;;4926890;29;20031;-82
2022/02/20 07:51:44;;;;;;;156.98;47.78;;;1.40;99.90;;;;;;4930203;29;20019;-82
2022/02/20 07:54:10;;;;;;;152.25;44.05;;;1.30;99.90;;;;;;4948200;29;20486;-81
2022/02/20 07:56:36;;;;;;;185.25;50.90;;;1.30;99.90;;;;;;4929184;29;20016;-74
2022/02/20 07:59:02;;;;;;;221.60;67.22;;;1.30;99.90;;;;;;4946743;28;20026;-76
2022/02/20 08:01:27;;;;;;;269.08;79.60;;;1.30;99.90;;;;;;4946921;29;20474;-74
2022/02/20 08:03:53;;;;;;;148.95;42.05;;;1.30;99.90;;;;;;4932768;29;20038;-82
2022/02/20 08:06:18;;;;;;;65.82;17.67;;;1.30;99.90;;;;;;4936919;29;20429;-82
2022/02/20 08:08:44;;;;;;;64.30;21.67;;;1.30;99.90;;;;;;4942473;28;20036;-82
2022/02/20 08:11:10;;;;;;;40.28;12.13;;;1.30;99.90;;;;;;4945173;29;20039;-82
2022/02/20 08:13:35;;;;;;;60.15;18.70;;;1.30;99.90;;;;;;4945658;28;20024;-82
2022/02/20 08:16:01;;;;;;;71.97;23.95;;;1.30;99.90;;;;;;4930271;28;20035;-82
2022/02/20 08:18:26;;;;;;;98.70;37.55;;;1.30;99.90;;;;;;4956322;28;20020;-83
2022/02/20 08:20:52;;;;;;;20.05;12.05;;;1.30;99.90;;;;;;4955625;28;20043;-81
2022/02/20 08:23:18;;;;;;;33.67;13.73;;;1.30;99.90;;;;;;4939081;29;20027;-82
2022/02/20 08:25:46;;;;;;;20.15;10.15;;;1.40;99.90;;;;;;4938044;28;20039;-82
2022/02/20 08:28:12;;;;;;;24.88;10.73;;;1.40;99.90;;;;;;4938763;28;20035;-76
2022/02/20 08:30:38;;;;;;;42.05;15.38;;;1.30;99.90;;;;;;4955736;28;20415;-75
2022/02/20 08:33:05;;;;;;;37.00;15.73;;;1.30;99.90;;;;;;4938407;28;20481;-74
2022/02/20 08:35:31;;;;;;;41.35;17.50;;;1.30;99.90;;;;;;4946016;29;20454;-75
2022/02/20 08:37:57;;;;;;;41.95;18.67;;;1.30;99.90;;;;;;4919539;29;20024;-74
2022/02/20 08:40:23;;;;;;;18.67;9.35;;;1.40;99.90;;;;;;4936159;29;20039;-74
2022/02/20 08:42:49;;;;;;;28.75;12.23;;;1.40;99.90;;;;;;4940765;28;20485;-75
2022/02/20 08:45:17;;;;;;;22.73;11.98;;;1.40;99.90;;;;;;4956869;28;20031;-74
2022/02/20 08:47:43;;;;;;;19.45;9.95;;;1.40;99.90;;;;;;4960147;28;20046;-74
2022/02/20 08:50:10;;;;;;;24.52;13.57;;;1.40;99.90;;;;;;4955581;28;20036;-74
2022/02/20 08:52:37;;;;;;;42.35;20.80;;;1.40;99.90;;;;;;4974052;28;20027;-74
2022/02/20 08:55:04;;;;;;;22.05;10.77;;;1.40;99.90;;;;;;4965731;28;20081;-74
2022/02/20 08:57:30;;;;;;;34.90;17.80;;;1.50;99.90;;;;;;4960280;28;20034;-74
2022/02/20 08:59:57;;;;;;;21.83;11.60;;;1.50;99.90;;;;;;4959079;28;20023;-74
2022/02/20 09:02:23;;;;;;;23.27;10.60;;;1.40;99.90;;;;;;4956074;28;20035;-73
2022/02/20 09:04:49;;;;;;;24.33;12.13;;;1.40;99.90;;;;;;4961627;28;20568;-75
2022/02/20 09:07:14;;;;;;;24.55;11.43;;;1.50;99.90;;;;;;4960850;28;20114;-74
2022/02/20 09:09:40;;;;;;;19.52;10.98;;;1.50;99.90;;;;;;4959171;28;20051;-74
2022/02/20 09:12:06;;;;;;;16.33;9.57;;;1.40;99.90;;;;;;4946455;28;20054;-73
2022/02/20 09:14:32;;;;;;;14.48;9.13;;;1.40;99.90;;;;;;4974746;28;20034;-75
2022/02/20 09:17:00;;;;;;;14.90;9.07;;;1.40;99.90;;;;;;4957555;28;20035;-73
2022/02/20 09:19:26;;;;;;;16.58;9.77;;;1.40;99.90;;;;;;4946311;28;20019;-74
2022/02/20 09:21:51;;;;;;;19.27;10.23;;;1.40;99.90;;;;;;4955445;28;20032;-74
2022/02/20 09:24:17;;;;;;;15.35;9.23;;;1.40;99.90;;;;;;4938659;29;20023;-82
2022/02/20 09:26:42;;;;;;;21.13;11.68;;;1.50;99.90;;;;;;4955397;28;20098;-82
2022/02/20 09:29:08;;;;;;;19.05;10.70;;;1.50;99.90;;;;;;4955749;29;20036;-81
2022/02/20 09:31:34;;;;;;;14.73;10.57;;;1.50;99.90;;;;;;4955586;28;20027;-82
2022/02/20 09:33:59;;;;;;;14.82;9.05;;;1.50;99.90;;;;;;4955332;29;20120;-82
2022/02/20 09:36:27;;;;;;;22.05;11.25;;;1.50;99.90;;;;;;4955236;28;20027;-80
2022/02/20 09:38:53;;;;;;;16.40;9.10;;;1.50;99.90;;;;;;4955431;29;20055;-81
2022/02/20 09:41:28;;;;;;;11.95;8.20;;;1.50;99.90;;;;;;4954474;28;20126;-81
2022/02/20 09:43:56;;;;;;;14.85;8.70;;;1.50;99.90;;;;;;4927094;29;20034;-80
2022/02/20 09:46:22;;;;;;;24.88;13.52;;;1.50;99.90;;;;;;4912554;29;20054;-80
2022/02/20 09:48:51;;;;;;;13.75;8.40;;;1.50;99.90;;;;;;4942204;29;20035;-80
2022/02/20 09:51:18;;;;;;;13.57;8.90;;;1.50;99.90;;;;;;4928850;29;20106;-80
2022/02/20 09:53:43;;;;;;;13.13;8.20;;;1.50;99.90;;;;;;4945273;29;20035;-80
2022/02/20 09:56:09;;;;;;;16.13;10.10;;;1.50;99.90;;;;;;4944467;28;20385;-80
2022/02/20 09:58:35;;;;;;;15.68;9.55;;;1.60;99.90;;;;;;4934590;29;20051;-80
2022/02/20 10:01:04;;;;;;;15.70;8.32;;;1.60;99.90;;;;;;4955288;28;20023;-79
2022/02/20 10:03:38;;;;;;;17.15;9.27;;;1.60;99.90;;;;;;4955234;28;20378;-79
2022/02/20 10:06:09;;;;;;;12.23;9.02;;;1.60;99.90;;;;;;4955293;28;20493;-75
2022/02/20 10:08:40;;;;;;;16.35;9.90;;;1.70;99.90;;;;;;4954365;29;20493;-74
2022/02/20 10:11:16;;;;;;;15.63;10.20;;;1.70;99.90;;;;;;4954050;28;20042;-73
2022/02/20 10:13:42;;;;;;;16.90;10.13;;;1.70;99.90;;;;;;4937754;29;20501;-74
2022/02/20 10:16:25;;;;;;;15.05;10.35;;;1.80;99.90;;;;;;4954861;28;20024;-74
2022/02/20 10:18:53;;;;;;;20.27;10.30;;;1.80;99.90;;;;;;4953029;29;20023;-73
2022/02/20 10:21:20;;;;;;;17.10;11.10;;;1.80;99.90;;;;;;4952359;28;20137;-74
2022/02/20 10:23:47;;;;;;;17.67;9.85;;;1.90;99.90;;;;;;4953265;29;20019;-74
2022/02/20 10:26:19;;;;;;;15.95;11.07;;;2.00;99.90;;;;;;4953114;28;20162;-73
2022/02/20 10:29:09;;;;;;;16.92;10.98;;;2.00;99.90;;;;;;4935932;29;20485;-73
2022/02/20 10:31:42;;;;;;;18.08;10.70;;;2.00;99.90;;;;;;4936029;29;20074;-74
2022/02/20 10:34:12;;;;;;;16.50;10.27;;;2.10;99.90;;;;;;4954514;28;20031;-74
2022/02/20 10:36:45;;;;;;;19.48;9.90;;;2.10;99.90;;;;;;4954819;28;20062;-80
2022/02/20 10:39:31;;;;;;;19.27;10.65;;;2.20;99.90;;;;;;4937536;29;20426;-79
2022/02/20 10:42:15;;;;;;;20.95;10.40;;;2.20;99.90;;;;;;4954705;28;20023;-79
2022/02/20 10:44:58;;;;;;;17.27;9.45;;;2.20;99.90;;;;;;4937596;29;20401;-80
2022/02/20 10:47:25;;;;;;;20.67;11.88;;;2.30;99.90;;;;;;4937381;29;20031;-79
2022/02/20 10:49:51;;;;;;;22.00;12.32;;;2.30;99.90;;;;;;4954533;29;20058;-74
2022/02/20 10:52:21;;;;;;;14.73;8.93;;;2.40;99.90;;;;;;4954081;28;20075;-73
2022/02/20 10:55:01;;;;;;;13.05;7.82;;;2.50;99.90;;;;;;4936775;29;20059;-74
2022/02/20 10:57:35;;;;;;;12.68;8.18;;;2.60;99.90;;;;;;4954190;28;20034;-79
2022/02/20 11:00:12;;;;;;;19.58;9.23;;;2.70;99.90;;;;;;4953905;28;20118;-73
2022/02/20 11:02:38;;;;;;;17.50;8.45;;;2.80;99.90;;;;;;4954096;28;20028;-73
2022/02/20 11:05:04;;;;;;;16.98;9.85;;;2.80;99.90;;;;;;4953982;28;20042;-80
2022/02/20 11:07:30;;;;;;;14.82;9.07;;;2.90;99.90;;;;;;4953245;28;20036;-80
2022/02/20 11:09:56;;;;;;;13.95;9.27;;;3.10;99.90;;;;;;4953616;28;20094;-74
2022/02/20 11:12:21;;;;;;;13.45;9.30;;;3.20;99.90;;;;;;4936817;29;20102;-80
2022/02/20 11:14:49;;;;;;;16.02;10.82;;;3.30;99.90;;;;;;4953776;28;20032;-80
2022/02/20 11:17:16;;;;;;;18.50;9.38;;;3.40;99.90;;;;;;4936499;28;20020;-80
2022/02/20 11:19:42;;;;;;;16.23;10.65;;;3.50;99.90;;;;;;4953507;28;20134;-73
2022/02/20 11:22:09;;;;;;;17.67;9.48;;;3.60;99.90;;;;;;4953049;28;20425;-73
2022/02/20 11:24:37;;;;;;;14.82;9.07;;;3.60;99.90;;;;;;4953664;28;20531;-73
2022/02/20 11:27:05;;;;;;;16.52;9.10;;;3.70;99.90;;;;;;4936641;28;20430;-73
2022/02/20 11:29:31;;;;;;;13.30;7.78;;;3.80;99.90;;;;;;4953638;28;20106;-73
2022/02/20 11:31:57;;;;;;;12.35;8.23;;;3.80;99.90;;;;;;4936372;28;20020;-74
2022/02/20 11:34:24;;;;;;;11.93;8.10;;;3.90;99.90;;;;;;4956124;28;20067;-73
2022/02/20 11:36:57;;;;;;;20.92;13.32;;;3.90;99.90;;;;;;4956355;28;20027;-73
2022/02/20 11:39:24;;;;;;;12.88;7.20;;;4.00;99.90;;;;;;4939581;29;20042;-74
2022/02/20 11:42:09;;;;;;;22.35;9.82;;;4.00;99.90;;;;;;4956846;28;20485;-74
2022/02/20 11:44:55;;;;;;;12.73;7.82;;;4.10;99.90;;;;;;4956800;28;20106;-79
2022/02/20 11:47:42;;;;;;;12.10;7.45;;;4.20;99.90;;;;;;4956764;28;20058;-73
2022/02/20 11:50:17;;;;;;;14.13;7.18;;;4.20;99.90;;;;;;4956979;29;20082;-79
2022/02/20 11:52:52;;;;;;;18.15;8.13;;;4.30;99.90;;;;;;4940102;29;20089;-80
2022/02/20 11:55:23;;;;;;;13.45;6.70;;;4.40;99.90;;;;;;4957357;29;20114;-80
2022/02/20 11:57:50;;;;;;;13.57;5.68;;;4.40;99.90;;;;;;4957192;28;20528;-80
2022/02/20 12:00:22;;;;;;;17.42;11.52;;;4.50;99.90;;;;;;4957214;29;20098;-79
2022/02/20 12:03:02;;;;;;;12.48;7.45;;;4.50;99.90;;;;;;4957228;28;20023;-79
2022/02/20 12:05:28;;;;;;;19.63;8.65;;;4.50;99.90;;;;;;4939905;29;20031;-79
2022/02/20 12:07:53;;;;;;;17.75;7.85;;;4.40;99.90;;;;;;4957016;28;20066;-80
2022/02/20 12:10:27;;;;;;;20.88;9.02;;;4.40;99.90;;;;;;4939825;29;20059;-79
2022/02/20 12:12:57;;;;;;;13.55;8.05;;;4.40;99.90;;;;;;4957074;28;20082;-79
2022/02/20 12:15:30;;;;;;;12.93;7.28;;;4.40;99.90;;;;;;4956917;29;20032;-79
2022/02/20 12:18:11;;;;;;;23.50;10.35;;;4.30;99.90;;;;;;4956863;28;20015;-79
2022/02/20 12:20:52;;;;;;;13.00;6.75;;;4.30;99.90;;;;;;4956590;28;20066;-79
2022/02/20 12:23:31;;;;;;;16.23;8.48;;;4.30;99.90;;;;;;4956872;29;20034;-80
2022/02/20 12:26:00;;;;;;;16.20;8.05;;;4.20;99.90;;;;;;4956612;28;20489;-81
2022/02/20 12:28:36;;;;;;;12.82;7.80;;;4.20;99.90;;;;;;4956682;28;20054;-80
2022/02/20 12:31:29;;;;;;;17.75;8.15;;;4.20;99.90;;;;;;4956740;28;20027;-81
2022/02/20 12:33:55;;;;;;;29.65;13.80;;;4.20;99.90;;;;;;4936402;29;20109;-80